createdAt,value
2022-10-11T00:01:18.851Z,76.79
2022-10-11T00:04:20.993Z,77.42
2022-10-11T00:07:23.339Z,77.29
2022-10-11T00:10:25.715Z,77.02
2022-10-11T00:13:28.269Z,77.39
2022-10-11T00:16:30.280Z,77.19
2022-10-11T00:19:32.460Z,78.28
2022-10-11T00:22:36.030Z,79.13
2022-10-11T00:25:39.219Z,79.09
2022-10-11T00:28:42.360Z,78.76
2022-10-11T00:31:44.798Z,78.36
2022-10-11T00:34:46.776Z,79.31
2022-10-11T00:37:49.173Z,79.43
2022-10-11T00:40:51.403Z,79.40
2022-10-11T00:44:15.445Z,80.97
2022-10-11T00:47:19.943Z,82.01
2022-10-11T00:50:23.758Z,81.86
2022-10-11T00:53:26.354Z,81.84
2022-10-11T00:56:34.338Z,81.76
2022-10-11T00:59:40.425Z,81.98
2022-10-11T01:02:43.257Z,81.97
2022-10-11T01:05:46.242Z,82.02
2022-10-11T01:08:48.700Z,81.75
2022-10-11T01:11:52.469Z,81.84
2022-10-11T01:15:13.235Z,82.46
2022-10-11T01:18:44.103Z,81.57
2022-10-11T01:22:06.540Z,81.79
2022-10-11T01:25:32.791Z,81.44
2022-10-11T01:28:35.129Z,81.64
2022-10-11T01:32:00.547Z,81.82
2022-10-11T01:35:07.646Z,81.93
2022-10-11T01:38:33.191Z,81.71
2022-10-11T01:41:41.665Z,80.89
2022-10-11T01:44:47.346Z,80.93
2022-10-11T01:48:01.838Z,80.80
2022-10-11T01:51:04.117Z,80.93
2022-10-11T01:54:19.576Z,80.14
2022-10-11T01:57:41.755Z,79.83
2022-10-11T02:00:55.468Z,80.45
2022-10-11T02:04:05.417Z,80.69
2022-10-11T02:07:12.302Z,80.61
2022-10-11T02:10:24.990Z,80.37
2022-10-11T02:13:40.132Z,79.86
2022-10-11T02:16:58.600Z,79.86
2022-10-11T02:20:04.780Z,79.24
2022-10-11T02:23:14.022Z,79.91
2022-10-11T02:26:17.238Z,79.83
2022-10-11T02:29:20.718Z,79.55
2022-10-11T02:32:24.590Z,80.03
2022-10-11T02:35:29.935Z,79.76
2022-10-11T02:38:40.389Z,79.61
2022-10-11T02:41:43.243Z,80.26
2022-10-11T02:45:10.316Z,80.98
2022-10-11T02:48:12.796Z,80.41
2022-10-11T02:51:15.195Z,80.64
2022-10-11T02:54:17.442Z,79.77
2022-10-11T02:57:19.817Z,80.90
2022-10-11T03:00:21.870Z,82.13
2022-10-11T03:03:24.050Z,82.20
2022-10-11T03:06:26.057Z,81.86
2022-10-11T03:09:28.276Z,82.07
2022-10-11T03:12:30.401Z,81.83
2022-10-11T03:15:32.964Z,82.68
2022-10-11T03:18:35.463Z,82.56
2022-10-11T03:21:37.966Z,83.06
2022-10-11T03:24:40.119Z,83.13
2022-10-11T03:27:42.407Z,84.44
2022-10-11T03:30:47.728Z,84.42
2022-10-11T03:33:50.250Z,85.13
2022-10-11T03:36:52.225Z,85.12
2022-10-11T03:39:54.547Z,85.56
2022-10-11T03:42:57.404Z,86.49
2022-10-11T03:45:59.681Z,86.11
2022-10-11T03:49:02.105Z,86.57
2022-10-11T03:52:04.438Z,86.95
2022-10-11T03:55:07.321Z,86.92
2022-10-11T03:58:09.659Z,86.11
2022-10-11T04:01:11.670Z,86.77
2022-10-11T04:04:13.834Z,86.07
2022-10-11T04:07:15.954Z,85.93
2022-10-11T04:10:18.234Z,85.84
2022-10-11T04:13:20.295Z,85.31
2022-10-11T04:16:22.694Z,85.07
2022-10-11T04:19:24.845Z,86.08
2022-10-11T04:22:27.290Z,84.10
2022-10-11T04:25:29.488Z,83.19
2022-10-11T04:28:31.893Z,84.17
2022-10-11T04:31:33.993Z,85.65
2022-10-11T04:34:36.234Z,83.97
2022-10-11T04:37:38.280Z,84.00
2022-10-11T04:40:40.550Z,84.47
2022-10-11T04:43:42.954Z,84.59
2022-10-11T04:46:45.214Z,85.13
2022-10-11T04:49:47.278Z,83.33
2022-10-11T04:52:49.521Z,84.79
2022-10-11T04:56:02.034Z,83.38
2022-10-11T04:59:04.502Z,82.86
2022-10-11T05:02:06.569Z,83.76
2022-10-11T05:05:09.487Z,82.84
2022-10-11T05:08:11.802Z,83.18
2022-10-11T05:11:16.229Z,83.68
2022-10-11T05:14:18.592Z,83.75
2022-10-11T05:17:20.829Z,84.47
2022-10-11T05:20:23.308Z,85.07
2022-10-11T05:23:25.682Z,86.70
2022-10-11T05:26:29.022Z,86.91
2022-10-11T05:29:31.294Z,85.46
2022-10-11T05:32:33.709Z,86.41
2022-10-11T05:35:36.027Z,86.29
2022-10-11T05:38:38.428Z,85.44
2022-10-11T05:41:40.645Z,87.22
2022-10-11T05:44:42.967Z,89.66
2022-10-11T05:47:45.177Z,92.00
2022-10-11T05:50:47.615Z,94.50
2022-10-11T05:53:49.981Z,95.05
2022-10-11T05:56:52.042Z,98.75
2022-10-11T05:59:54.318Z,100.00
2022-10-11T06:02:56.395Z,100.00
2022-10-11T06:06:02.416Z,100.00
2022-10-11T06:09:04.504Z,100.00
2022-10-11T06:12:06.855Z,100.00
2022-10-11T06:15:10.842Z,100.00
2022-10-11T06:18:13.835Z,100.00
2022-10-11T06:21:15.953Z,100.00
2022-10-11T06:24:18.230Z,100.00
2022-10-11T06:27:20.349Z,100.00
2022-10-11T06:30:22.621Z,100.00
2022-10-11T06:33:25.190Z,100.00
2022-10-11T06:36:27.879Z,99.37
2022-10-11T06:39:29.990Z,98.49
2022-10-11T06:42:32.156Z,98.13
2022-10-11T06:45:34.176Z,97.70
2022-10-11T06:48:40.321Z,97.34
2022-10-11T06:51:42.409Z,97.31
2022-10-11T06:54:45.675Z,96.54
2022-10-11T06:57:47.776Z,96.39
2022-10-11T07:00:50.008Z,96.81
2022-10-11T07:03:53.744Z,96.96
2022-10-11T07:06:56.032Z,96.41
2022-10-11T07:09:58.434Z,96.41
2022-10-11T07:13:00.630Z,96.49
2022-10-11T07:16:05.146Z,96.26
2022-10-11T07:19:07.787Z,95.90
2022-10-11T07:22:09.960Z,94.79
2022-10-11T07:25:12.191Z,94.46
2022-10-11T07:28:14.428Z,94.15
2022-10-11T07:31:23.201Z,93.02
2022-10-11T07:34:25.357Z,92.41
2022-10-11T07:37:27.656Z,91.61
2022-10-11T07:40:29.736Z,91.17
2022-10-11T07:43:32.452Z,90.72
2022-10-11T07:46:34.542Z,90.16
2022-10-11T07:49:36.829Z,89.71
2022-10-11T07:52:39.117Z,88.31
2022-10-11T07:55:42.298Z,87.77
2022-10-11T07:58:44.669Z,87.23
2022-10-11T08:01:49.936Z,85.00
2022-10-11T08:04:52.154Z,84.94
2022-10-11T08:07:54.440Z,84.97
2022-10-11T08:10:57.072Z,84.89
2022-10-11T08:14:00.118Z,84.89
2022-10-11T08:17:02.479Z,84.60
2022-10-11T08:20:05.244Z,83.37
2022-10-11T08:23:09.652Z,82.29
2022-10-11T08:26:12.466Z,82.28
2022-10-11T08:29:14.613Z,81.29
2022-10-11T08:32:16.833Z,81.20
2022-10-11T08:35:18.894Z,78.95
2022-10-11T08:38:21.467Z,78.36
2022-10-11T08:41:29.499Z,78.98
2022-10-11T08:45:09.992Z,77.73
2022-10-11T08:48:20.925Z,77.13
2022-10-11T08:51:30.747Z,77.26
2022-10-11T08:54:47.211Z,75.89
2022-10-11T08:57:54.107Z,76.06
2022-10-11T09:00:56.980Z,77.23
2022-10-11T09:04:00.208Z,75.45
2022-10-11T09:07:16.171Z,75.04
2022-10-11T09:10:46.010Z,75.86
2022-10-11T09:14:12.697Z,73.13
2022-10-11T09:17:42.065Z,72.76
2022-10-11T09:21:14.969Z,74.04
2022-10-11T09:24:19.896Z,72.49
2022-10-11T09:28:02.218Z,72.21
2022-10-11T09:31:09.802Z,74.53
2022-10-11T09:34:14.221Z,69.37
2022-10-11T09:37:35.146Z,67.98
2022-10-11T09:41:05.587Z,67.12
2022-10-11T09:44:08.626Z,66.90
2022-10-11T09:47:15.540Z,67.88
2022-10-11T09:50:21.545Z,64.86
2022-10-11T09:53:56.640Z,66.66
2022-10-11T09:56:59.105Z,65.29
2022-10-11T10:00:07.616Z,64.08
2022-10-11T10:03:29.656Z,62.51
2022-10-11T10:06:32.013Z,61.55
2022-10-11T10:09:34.240Z,63.08
2022-10-11T10:12:36.284Z,63.44
2022-10-11T10:15:46.033Z,61.10
2022-10-11T10:18:52.803Z,57.62
2022-10-11T10:21:55.926Z,58.12
2022-10-11T10:25:00.644Z,57.40
2022-10-11T10:28:05.296Z,56.66
2022-10-11T10:31:22.205Z,55.74
2022-10-11T10:34:31.600Z,57.47
2022-10-11T10:37:43.595Z,54.79
2022-10-11T10:40:54.098Z,54.10
2022-10-11T10:43:57.627Z,55.51
2022-10-11T10:47:19.539Z,50.20
2022-10-11T10:50:27.856Z,50.28
2022-10-11T10:54:12.025Z,52.34
2022-10-11T10:57:20.087Z,55.71
2022-10-11T11:00:23.669Z,53.93
2022-10-11T11:03:45.925Z,51.82
2022-10-11T11:07:02.710Z,52.95
2022-10-11T11:10:11.338Z,52.37
2022-10-11T11:13:41.447Z,52.75
2022-10-11T11:17:18.790Z,53.88
2022-10-11T11:20:32.926Z,54.16
2022-10-11T11:23:45.726Z,51.40
2022-10-11T11:27:06.138Z,50.20
2022-10-11T11:30:34.337Z,49.10
2022-10-11T11:33:48.537Z,50.28
2022-10-11T11:37:00.862Z,48.89
2022-10-11T11:40:41.982Z,49.43
2022-10-11T11:44:02.024Z,48.95
2022-10-11T11:47:17.782Z,51.17
2022-10-11T11:50:27.935Z,51.05
2022-10-11T11:53:52.421Z,50.15
2022-10-11T11:57:00.991Z,49.44
2022-10-11T12:00:14.780Z,51.71
2022-10-11T12:03:24.288Z,48.25
2022-10-11T12:06:30.242Z,49.56
2022-10-11T12:09:36.713Z,47.92
2022-10-11T12:12:39.322Z,48.52
2022-10-11T12:15:59.192Z,46.69
2022-10-11T12:19:03.379Z,45.91
2022-10-11T12:22:30.005Z,47.86
2022-10-11T12:25:36.532Z,46.20
2022-10-11T12:28:41.889Z,45.57
2022-10-11T12:31:46.352Z,45.54
2022-10-11T12:34:48.460Z,45.34
2022-10-11T12:37:51.785Z,44.58
2022-10-11T12:41:25.607Z,46.38
2022-10-11T12:44:29.155Z,46.88
2022-10-11T12:48:08.385Z,44.61
2022-10-11T12:51:35.296Z,46.63
2022-10-11T12:55:23.653Z,46.72
2022-10-11T12:58:47.145Z,44.54
2022-10-11T13:01:53.152Z,44.82
2022-10-11T13:05:27.910Z,45.14
2022-10-11T13:08:35.718Z,45.03
2022-10-11T13:11:53.026Z,45.03
2022-10-11T13:15:07.035Z,44.62
2022-10-11T13:18:14.487Z,46.45
2022-10-11T13:21:32.123Z,45.12
2022-10-11T13:24:39.782Z,44.87
2022-10-11T13:27:42.028Z,45.90
2022-10-11T13:30:46.892Z,44.66
2022-10-11T13:33:49.133Z,45.65
2022-10-11T13:36:56.478Z,46.22
2022-10-11T13:39:58.744Z,46.70
2022-10-11T13:43:01.132Z,45.87
2022-10-11T13:46:05.349Z,47.70
2022-10-11T13:49:28.229Z,47.35
2022-10-11T13:52:30.225Z,49.03
2022-10-11T13:55:34.084Z,48.94
2022-10-11T13:58:40.588Z,49.68
2022-10-11T14:01:45.170Z,49.88
2022-10-11T14:04:48.690Z,50.16
2022-10-11T14:07:51.206Z,51.20
2022-10-11T14:10:57.758Z,51.02
2022-10-11T14:14:29.944Z,52.25
2022-10-11T14:17:38.875Z,51.33
2022-10-11T14:20:42.005Z,50.85
2022-10-11T14:23:44.123Z,50.81
2022-10-11T14:26:54.773Z,51.11
2022-10-11T14:30:20.257Z,51.12
2022-10-11T14:33:26.356Z,51.05
2022-10-11T14:36:28.438Z,53.17
2022-10-11T14:39:32.603Z,50.38
2022-10-11T14:42:34.626Z,51.05
2022-10-11T14:45:37.416Z,51.03
2022-10-11T14:48:56.311Z,50.48
2022-10-11T14:51:59.711Z,50.41
2022-10-11T14:55:02.340Z,51.62
2022-10-11T14:58:06.505Z,53.37
2022-10-11T15:01:16.715Z,54.31
2022-10-11T15:04:23.720Z,51.50
2022-10-11T15:07:25.812Z,51.55
2022-10-11T15:10:31.516Z,53.30
2022-10-11T15:13:33.782Z,52.85
2022-10-11T15:16:36.165Z,52.81
2022-10-11T15:19:38.333Z,54.89
2022-10-11T15:22:40.703Z,55.09
2022-10-11T15:25:43.002Z,56.21
2022-10-11T15:28:45.926Z,54.69
2022-10-11T15:31:49.324Z,55.97
2022-10-11T15:34:51.780Z,55.44
2022-10-11T15:37:56.229Z,56.88
2022-10-11T15:40:59.780Z,56.94
2022-10-11T15:44:02.105Z,57.41
2022-10-11T15:47:04.500Z,57.59
2022-10-11T15:50:23.469Z,57.93
2022-10-11T15:53:30.211Z,57.71
2022-10-11T15:56:33.906Z,59.82
2022-10-11T15:59:36.376Z,60.80
2022-10-11T16:02:38.653Z,60.71
2022-10-11T16:05:41.377Z,61.59
2022-10-11T16:08:43.574Z,61.65
2022-10-11T16:11:45.964Z,60.13
2022-10-11T16:14:48.109Z,58.92
2022-10-11T16:17:50.673Z,59.06
2022-10-11T16:20:53.044Z,60.25
2022-10-11T16:23:55.406Z,61.06
2022-10-11T16:26:57.500Z,61.76
2022-10-11T16:30:00.345Z,61.18
2022-10-11T16:33:02.478Z,61.71
2022-10-11T16:36:26.217Z,62.37
2022-10-11T16:39:28.478Z,62.56
2022-10-11T16:42:30.912Z,62.94
2022-10-11T16:45:33.851Z,62.19
2022-10-11T16:48:35.992Z,63.67
2022-10-11T16:51:38.016Z,62.34
2022-10-11T16:54:44.457Z,63.22
2022-10-11T16:57:46.582Z,63.41
2022-10-11T17:00:48.952Z,63.75
2022-10-11T17:03:52.470Z,64.56
2022-10-11T17:06:55.237Z,64.62
2022-10-11T17:09:58.298Z,64.86
2022-10-11T17:13:01.038Z,65.13
2022-10-11T17:16:03.736Z,64.90
2022-10-11T17:19:11.563Z,66.11
2022-10-11T17:22:18.045Z,69.16
2022-10-11T17:25:20.680Z,67.25
2022-10-11T17:28:22.937Z,66.84
2022-10-11T17:31:25.820Z,67.23
2022-10-11T17:34:28.071Z,67.71
2022-10-11T17:37:30.445Z,68.17
2022-10-11T17:40:32.634Z,68.60
2022-10-11T17:43:35.080Z,69.92
2022-10-11T17:46:37.875Z,69.36
2022-10-11T17:49:40.100Z,69.02
2022-10-11T17:52:42.283Z,69.23
2022-10-11T17:55:44.913Z,69.33
2022-10-11T17:58:47.163Z,69.73
2022-10-11T18:01:50.695Z,69.63
2022-10-11T18:04:52.894Z,70.45
2022-10-11T18:07:55.372Z,70.71
2022-10-11T18:10:57.562Z,72.01
2022-10-11T18:14:00.278Z,70.54
2022-10-11T18:17:02.395Z,70.22
2022-10-11T18:20:05.085Z,70.18
2022-10-11T18:23:07.105Z,70.53
2022-10-11T18:26:11.450Z,71.76
2022-10-11T18:29:13.863Z,72.82
2022-10-11T18:32:18.243Z,71.34
2022-10-11T18:35:20.406Z,73.08
2022-10-11T18:38:22.701Z,71.05
2022-10-11T18:41:30.756Z,70.90
2022-10-11T18:44:33.201Z,71.99
2022-10-11T18:47:35.153Z,72.63
2022-10-11T18:50:37.602Z,73.15
2022-10-11T18:53:40.065Z,74.24
2022-10-11T18:56:42.797Z,71.45
2022-10-11T18:59:45.108Z,71.52
2022-10-11T19:02:47.588Z,71.93
2022-10-11T19:05:49.773Z,71.71
2022-10-11T19:09:04.645Z,71.12
2022-10-11T19:12:06.750Z,72.44
2022-10-11T19:15:09.457Z,72.40
2022-10-11T19:18:13.459Z,72.44
2022-10-11T19:21:18.266Z,71.47
2022-10-11T19:24:22.972Z,72.02
2022-10-11T19:27:25.438Z,72.04
2022-10-11T19:30:27.560Z,73.44
2022-10-11T19:33:31.687Z,72.82
2022-10-11T19:36:36.850Z,72.46
2022-10-11T19:39:39.505Z,71.74
2022-10-11T19:42:41.841Z,72.87
2022-10-11T19:45:44.264Z,72.05
2022-10-11T19:48:48.219Z,72.21
2022-10-11T19:51:51.274Z,71.85
2022-10-11T19:54:53.326Z,72.69
2022-10-11T19:57:55.687Z,73.40
2022-10-11T20:01:10.159Z,74.36
2022-10-11T20:04:33.208Z,74.25
2022-10-11T20:07:35.930Z,73.11
2022-10-11T20:10:38.331Z,73.08
2022-10-11T20:13:40.544Z,73.66
2022-10-11T20:16:43.471Z,73.33
2022-10-11T20:19:45.533Z,75.26
2022-10-11T20:22:48.312Z,73.70
2022-10-11T20:26:07.005Z,74.09
2022-10-11T20:29:09.474Z,74.27
2022-10-11T20:32:11.642Z,73.94
2022-10-11T20:35:14.028Z,74.23
2022-10-11T20:38:16.075Z,74.53
2022-10-11T20:41:21.657Z,74.75
2022-10-11T20:44:23.827Z,74.23
2022-10-11T20:47:26.253Z,74.12
2022-10-11T20:50:28.247Z,74.54
2022-10-11T20:53:30.546Z,75.43
2022-10-11T20:56:33.683Z,75.28
2022-10-11T20:59:35.859Z,74.87
2022-10-11T21:02:38.546Z,74.77
2022-10-11T21:05:41.013Z,74.53
2022-10-11T21:08:42.990Z,75.22
2022-10-11T21:11:45.609Z,74.60
2022-10-11T21:14:47.608Z,74.57
2022-10-11T21:17:50.737Z,75.56
2022-10-11T21:20:52.771Z,75.37
2022-10-11T21:23:59.922Z,74.40
2022-10-11T21:27:02.321Z,75.83
2022-10-11T21:30:04.963Z,75.13
2022-10-11T21:33:07.029Z,75.04
2022-10-11T21:36:17.513Z,74.74
2022-10-11T21:39:19.525Z,75.42
2022-10-11T21:42:25.872Z,74.87
2022-10-11T21:45:30.733Z,74.94
2022-10-11T21:48:33.303Z,74.87
2022-10-11T21:51:35.315Z,75.08
2022-10-11T21:54:37.721Z,75.00
2022-10-11T21:57:42.705Z,75.24
2022-10-11T22:00:47.004Z,76.26
2022-10-11T22:03:49.553Z,76.35
2022-10-11T22:06:51.820Z,75.77
2022-10-11T22:09:53.824Z,75.95
2022-10-11T22:12:56.086Z,76.65
2022-10-11T22:16:01.460Z,75.75
2022-10-11T22:19:06.804Z,75.54
2022-10-11T22:22:08.883Z,75.81
2022-10-11T22:25:11.086Z,75.59
2022-10-11T22:28:13.170Z,76.63
2022-10-11T22:31:17.222Z,77.07
2022-10-11T22:34:19.634Z,76.45
2022-10-11T22:37:21.823Z,76.14
2022-10-11T22:40:23.805Z,75.60
2022-10-11T22:43:26.000Z,76.19
2022-10-11T22:46:28.475Z,76.75
2022-10-11T22:49:30.662Z,76.28
2022-10-11T22:52:32.766Z,75.71
2022-10-11T22:55:35.262Z,75.21
2022-10-11T22:58:37.796Z,75.81
2022-10-11T23:01:40.172Z,76.41
2022-10-11T23:04:42.221Z,77.08
2022-10-11T23:07:46.625Z,77.26
2022-10-11T23:10:48.821Z,76.95
2022-10-11T23:13:51.103Z,76.48
2022-10-11T23:16:53.484Z,77.01
2022-10-11T23:19:56.282Z,77.18
2022-10-11T23:23:01.127Z,76.66
2022-10-11T23:26:08.521Z,76.35
2022-10-11T23:29:11.040Z,76.81
2022-10-11T23:32:13.331Z,78.29
2022-10-11T23:35:15.604Z,78.58
2022-10-11T23:38:17.837Z,77.46
2022-10-11T23:41:21.067Z,78.01
2022-10-11T23:44:23.396Z,77.88
2022-10-11T23:47:25.443Z,78.07
2022-10-11T23:50:27.620Z,78.19
2022-10-11T23:53:29.656Z,78.05
2022-10-11T23:56:32.009Z,78.37
2022-10-11T23:59:34.123Z,78.79
